.
WxDataArchive / Data Records for 2006-08-18
2006-08-17 August 2006 2006-08-19

Data Records for Friday, 18 August 2006

Time	Temp	Chill	HIndex	Humid	Dewpt	 Wind 	HiWind	WindDir	Rain 	Barom 
-----	----	-----	------	-----	-----	------	------	-------	-----	----- 
00:00	73.3	73.3	73.3	65	60.8	0	2	90	0.00	30.035 
00:05	73.7	73.7	73.7	66	61.6	1	2	90	0.00	30.035 
00:10	73.9	73.9	73.9	66	61.8	0	2	90	0.00	30.035 
00:15	73.9	73.9	73.9	67	62.2	0	2	90	0.00	30.037 
00:20	73.5	73.5	73.5	68	62.3	0	2	90	0.00	30.037 
00:25	73.3	73.3	73.3	68	62.1	1	2	90	0.00	30.037 
00:30	73.2	73.2	73.2	69	62.4	1	3	90	0.00	30.036 
00:35	72.8	72.8	72.8	69	62.0	1	2	90	0.00	30.036 
00:40	72.7	72.7	72.7	70	62.3	0	2	90	0.00	30.036 
00:45	72.5	72.5	72.5	71	62.5	1	2	90	0.00	30.037 
00:50	72.3	72.3	72.3	72	62.8	1	3	90	0.00	30.037 
00:55	72.3	72.3	72.3	72	62.8	0	2	90	0.00	30.037 
01:00	72.1	72.1	72.1	72	62.6	1	3	90	0.00	30.036 
01:05	72.0	72.0	72.0	73	62.9	1	3	90	0.00	30.036 
01:10	71.8	71.8	71.8	73	62.7	1	2	90	0.00	30.036 
01:15	71.8	71.8	71.8	73	62.7	1	3	90	0.00	30.031 
01:20	71.6	71.6	71.6	73	62.5	1	3	90	0.00	30.031 
01:25	71.6	71.6	71.6	73	62.5	1	4	90	0.00	30.031 
01:30	71.6	71.6	71.6	73	62.5	1	3	90	0.00	30.029 
01:35	71.5	71.5	71.5	74	62.8	1	2	90	0.00	30.029 
01:40	71.5	71.5	71.5	74	62.8	0	3	90	0.00	30.029 
01:45	71.3	71.3	71.3	74	62.6	0	1	90	0.00	30.029 
01:50	71.3	71.3	71.3	75	63.0	0	1	90	0.00	30.029 
01:55	71.3	71.3	71.3	75	63.0	0	1	90	0.00	30.029 
02:00	71.1	71.1	71.1	75	62.8	0	2	90	0.00	30.026 
02:05	71.1	71.1	71.1	75	62.8	0	2	90	0.00	30.026 
02:10	71.1	71.1	71.1	75	62.8	0	2	90	0.00	30.026 
02:15	71.1	71.1	71.1	75	62.8	0	1	90	0.00	30.024 
02:20	71.1	71.1	71.1	76	63.1	0	1	90	0.00	30.024 
02:25	70.9	70.9	70.9	76	62.9	1	3	90	0.00	30.024 
02:30	70.9	70.9	70.9	76	62.9	1	3	90	0.00	30.020 
02:35	70.9	70.9	70.9	75	62.6	0	1	90	0.00	30.020 
02:40	70.9	70.9	70.9	76	62.9	0	2	90	0.00	30.020 
02:45	70.8	70.8	70.8	76	62.8	0	1	90	0.00	30.016 
02:50	70.8	70.8	70.8	76	62.8	0	2	90	0.00	30.016 
02:55	70.8	70.8	70.8	76	62.8	0	1	90	0.00	30.016 
03:00	70.6	70.6	70.6	76	62.7	0	1	90	0.00	30.016 
03:05	70.6	70.6	70.6	76	62.7	0	3	90	0.00	30.016 
03:10	70.4	70.4	70.4	76	62.5	0	2	90	0.00	30.016 
03:15	70.4	70.4	70.4	77	62.8	0	2	90	0.00	30.016 
03:20	70.4	70.4	70.4	77	62.8	0	2	90	0.00	30.016 
03:25	70.4	70.4	70.4	77	62.8	1	2	90	0.00	30.016 
03:30	70.4	70.4	70.4	77	62.8	0	2	90	0.00	30.015 
03:35	70.4	70.4	70.4	77	62.8	1	3	90	0.00	30.015 
03:40	70.3	70.3	70.3	77	62.7	1	2	90	0.00	30.015 
03:45	70.3	70.3	70.3	77	62.7	1	2	90	0.00	30.013 
03:50	70.3	70.3	70.3	77	62.7	1	2	90	0.00	30.013 
03:55	70.3	70.3	70.3	77	62.7	1	3	90	0.00	30.013 
04:00	70.3	70.3	70.3	77	62.7	1	2	90	0.00	30.012 
04:05	70.1	70.1	70.1	77	62.5	1	4	90	0.00	30.012 
04:10	70.1	70.1	70.1	77	62.5	0	2	90	0.00	30.012 
04:15	70.1	70.1	70.1	77	62.5	0	2	90	0.00	30.014 
04:20	70.1	70.1	70.1	77	62.5	1	4	90	0.00	30.014 
04:25	69.9	69.9	69.9	77	62.3	1	3	90	0.00	30.014 
04:30	69.9	69.9	69.9	77	62.3	0	2	90	0.00	30.012 
04:35	69.9	69.9	69.9	78	62.7	0	2	90	0.00	30.012 
04:40	69.8	69.8	69.8	78	62.6	0	0	---	0.00	30.012 
04:45	69.8	69.8	69.8	78	62.6	0	1	90	0.00	30.012 
04:50	69.6	69.6	69.6	78	62.4	0	2	90	0.00	30.012 
04:55	69.6	69.6	69.6	78	62.4	0	1	90	0.00	30.012 
05:00	69.6	69.6	69.6	78	62.4	0	1	90	0.00	30.006 
05:05	69.6	69.6	69.6	79	62.8	0	1	90	0.00	30.006 
05:10	69.6	69.6	69.6	78	62.4	0	2	90	0.00	30.006 
05:15	69.6	69.6	69.6	78	62.4	0	1	90	0.00	30.011 
05:20	69.6	69.6	69.6	79	62.8	0	0	---	0.00	30.011 
05:25	69.6	69.6	69.6	79	62.8	0	0	---	0.00	30.011 
05:30	69.6	69.6	69.6	79	62.8	0	0	---	0.00	30.012 
05:35	69.4	69.4	69.4	79	62.6	0	0	---	0.00	30.012 
05:40	69.4	69.4	69.4	79	62.6	0	0	---	0.00	30.012 
05:45	69.4	69.4	69.4	79	62.6	0	0	---	0.00	30.013 
05:50	69.3	69.3	69.3	80	62.9	0	0	---	0.00	30.013 
05:55	69.3	69.3	69.3	80	62.9	0	0	---	0.00	30.013 
06:00	69.1	69.1	69.1	80	62.7	0	1	90	0.00	30.011 
06:05	69.3	69.3	69.3	79	62.5	0	1	90	0.00	30.011 
06:10	69.3	69.3	69.3	79	62.5	0	0	---	0.00	30.011 
06:15	69.1	69.1	69.1	79	62.3	0	1	90	0.00	30.007 
06:20	69.1	69.1	69.1	79	62.3	0	1	90	0.00	30.007 
06:25	69.1	69.1	69.1	78	61.9	0	1	90	0.00	30.007 
06:30	68.9	68.9	68.9	78	61.7	0	2	90	0.00	30.006 
06:35	68.9	68.9	68.9	79	62.1	0	0	---	0.00	30.006 
06:40	68.8	68.8	68.8	79	62.0	0	0	---	0.00	30.006 
06:45	68.6	68.6	68.6	79	61.8	0	0	---	0.00	30.004 
06:50	68.4	68.4	68.4	79	61.6	0	0	---	0.00	30.004 
06:55	68.3	68.3	68.3	80	61.9	0	0	---	0.00	30.004 
07:00	68.1	68.1	68.1	80	61.7	0	0	---	0.00	30.009 
07:05	67.9	67.9	67.9	81	61.8	0	0	---	0.00	30.009 
07:10	67.8	67.8	67.8	81	61.7	0	0	---	0.00	30.009 
07:15	67.6	67.6	67.6	82	61.9	0	0	---	0.00	30.017 
07:20	67.4	67.4	67.4	82	61.7	0	0	---	0.00	30.017 
07:25	67.4	67.4	67.4	83	62.0	0	0	---	0.00	30.017 
07:30	67.6	67.6	67.6	84	62.6	0	1	90	0.00	30.016 
07:35	67.8	67.8	67.8	83	62.4	0	1	90	0.00	30.016 
07:40	67.9	67.9	67.9	83	62.5	1	3	90	0.00	30.016 
07:45	68.1	68.1	68.1	83	62.7	0	2	90	0.00	30.015 
07:50	68.1	68.1	68.1	83	62.7	0	1	90	0.00	30.015 
07:55	68.3	68.3	68.3	83	62.9	0	1	90	0.00	30.015 
08:00	68.3	68.3	68.3	83	62.9	0	1	90	0.00	30.017 
08:05	68.6	68.6	68.6	82	62.9	0	1	90	0.00	30.017 
08:10	68.9	68.9	68.9	82	63.2	0	1	90	0.00	30.017 
08:15	69.3	69.3	69.3	81	63.2	0	2	90	0.00	30.023 
08:20	69.6	69.6	69.6	80	63.1	1	2	90	0.00	30.023 
08:25	69.9	69.9	69.9	78	62.7	1	2	90	0.00	30.023 
08:30	70.3	70.3	70.3	78	63.1	1	3	90	0.00	30.026 
08:35	70.4	70.4	70.4	78	63.2	1	3	90	0.00	30.026 
08:40	70.6	70.6	70.6	78	63.4	0	2	90	0.00	30.026 
08:45	70.8	70.8	70.8	78	63.6	1	2	90	0.00	30.031 
08:50	70.8	70.8	70.8	77	63.2	1	3	90	0.00	30.031 
08:55	70.9	70.9	70.9	77	63.3	0	2	90	0.00	30.031 
09:00	71.1	71.1	71.1	77	63.5	0	1	90	0.00	30.033 
09:05	71.5	71.5	71.5	76	63.5	1	2	90	0.00	30.033 
09:10	72.0	72.0	72.0	75	63.6	1	3	90	0.00	30.033 
09:15	72.3	72.3	72.3	74	63.5	1	3	90	0.00	30.032 
09:20	72.7	72.7	72.7	74	63.9	0	2	90	0.00	30.032 
09:25	73.0	73.0	73.0	73	63.8	0	2	90	0.00	30.032 
09:30	73.2	73.2	73.2	74	64.4	0	2	90	0.00	30.033 
09:35	73.2	73.2	73.2	73	64.0	0	2	90	0.00	30.033 
09:40	73.0	73.0	73.0	74	64.2	0	1	90	0.00	30.033 
09:45	73.0	73.0	73.0	75	64.6	0	1	90	0.00	30.032 
09:50	73.0	73.0	73.0	74	64.2	0	1	90	0.00	30.032 
09:55	73.0	73.0	73.0	74	64.2	0	1	90	0.00	30.032 
10:00	73.0	73.0	73.0	74	64.2	0	2	90	0.00	30.036 
10:05	73.2	73.2	73.2	74	64.4	0	2	90	0.00	30.036 
10:10	73.3	73.3	73.3	73	64.1	0	2	90	0.00	30.036 
10:15	73.5	73.5	73.5	74	64.7	0	1	90	0.00	30.033 
10:20	73.9	73.9	73.9	73	64.7	1	4	90	0.00	30.033 
10:25	74.0	74.0	74.0	74	65.2	0	2	90	0.00	30.033 
10:30	74.4	74.4	74.4	73	65.2	1	2	90	0.00	30.032 
10:35	74.7	74.7	74.7	73	65.5	0	1	90	0.00	30.032 
10:40	74.7	74.7	74.7	71	64.7	0	2	90	0.00	30.032 
10:45	74.9	74.9	74.9	73	65.6	0	2	90	0.00	30.033 
10:50	75.1	75.1	76.5	73	65.8	1	3	90	0.00	30.033 
10:55	75.4	75.4	77.0	71	65.3	1	3	90	0.00	30.033 
11:00	75.6	75.6	77.2	70	65.1	1	3	90	0.00	30.033 
11:05	75.6	75.6	77.2	70	65.1	1	2	90	0.00	30.033 
11:10	75.6	75.6	77.3	69	64.7	1	3	90	0.00	30.033 
11:15	75.6	75.6	77.2	70	65.1	1	2	90	0.00	30.034 
11:20	75.4	75.4	76.9	72	65.7	1	2	90	0.00	30.034 
11:25	75.3	75.3	76.8	72	65.6	1	2	90	0.00	30.034 
11:30	75.4	75.4	76.9	72	65.7	0	2	90	0.00	30.033 
11:35	75.6	75.6	77.0	73	66.3	1	3	90	0.00	30.033 
11:40	75.6	75.6	77.1	72	65.9	1	2	90	0.00	30.033 
11:45	75.8	75.8	77.3	72	66.1	1	2	90	0.00	30.032 
11:50	76.3	76.3	78.0	70	65.8	1	2	90	0.00	30.032 
11:55	77.0	77.0	78.8	69	66.0	1	2	90	0.00	30.032 
12:00	77.4	77.4	79.2	69	66.4	1	2	90	0.00	30.029 
12:05	77.7	77.7	79.6	69	66.7	1	3	90	0.00	30.029 
12:10	77.9	77.9	79.9	69	66.9	0	2	90	0.00	30.029 
12:15	78.1	78.1	80.1	69	67.1	0	1	90	0.00	30.031 
12:20	78.1	78.1	80.0	67	66.2	0	2	90	0.00	30.031 
12:25	78.1	78.1	80.0	67	66.2	0	1	90	0.00	30.031 
12:30	78.3	78.3	80.3	68	66.8	0	2	90	0.00	30.030 
12:35	78.5	78.5	80.5	67	66.6	1	2	90	0.00	30.030 
12:40	78.5	78.5	80.5	67	66.6	0	1	90	0.00	30.030 
12:45	78.5	78.5	80.6	68	67.0	0	2	90	0.00	30.027 
12:50	78.6	78.6	80.7	67	66.7	1	3	90	0.00	30.027 
12:55	78.6	78.6	80.7	68	67.1	0	1	90	0.00	30.027 
13:00	78.8	78.8	80.9	67	66.9	0	2	90	0.00	30.020 
13:05	79.0	79.0	81.2	67	67.1	1	3	90	0.00	30.020 
13:10	79.2	79.2	81.5	67	67.3	1	2	90	0.00	30.020 
13:15	79.8	79.8	82.2	66	67.4	0	1	90	0.00	30.019 
13:20	80.3	80.3	82.8	65	67.4	0	2	90	0.00	30.019 
13:25	80.9	80.9	83.4	63	67.1	0	2	90	0.00	30.019 
13:30	81.2	81.2	84.0	64	67.8	0	2	90	0.00	30.015 
13:35	81.4	81.4	84.1	63	67.6	0	1	90	0.00	30.015 
13:40	81.6	81.6	84.2	62	67.3	1	2	90	0.00	30.015 
13:45	81.4	81.4	84.1	63	67.6	1	2	90	0.00	30.014 
13:50	81.8	81.8	84.7	63	67.9	0	2	90	0.00	30.014 
13:55	82.4	82.4	85.2	61	67.6	0	3	22	0.00	30.014 
14:00	82.6	82.6	85.9	63	68.7	1	2	22	0.00	30.011 
14:05	82.6	82.6	85.7	62	68.2	0	1	22	0.00	30.011 
14:10	82.6	82.6	85.5	61	67.8	0	1	22	0.00	30.011 
14:15	82.4	82.4	85.4	62	68.0	0	2	315	0.00	30.014 
14:20	82.4	82.4	85.4	62	68.0	0	2	315	0.00	30.014 
14:25	82.6	82.6	85.7	62	68.2	1	4	22	0.00	30.014 
14:30	82.4	82.4	84.8	59	66.6	0	2	90	0.00	30.005 
14:35	82.4	82.4	85.2	61	67.6	0	1	90	0.00	30.005 
14:40	82.2	82.2	85.1	62	67.9	0	3	90	0.00	30.005 
14:45	82.2	82.2	85.1	62	67.9	1	3	90	0.00	30.000 
14:50	82.4	82.4	85.8	64	69.0	0	2	90	0.00	30.000 
14:55	83.0	83.0	86.9	64	69.5	0	2	90	0.00	30.000 
15:00	83.6	83.6	87.1	61	68.7	1	3	90	0.00	29.995 
15:05	83.2	83.2	86.2	60	67.8	1	3	90	0.00	29.995 
15:10	83.2	83.2	86.7	62	68.8	0	2	90	0.00	29.995 
15:15	83.2	83.2	86.9	63	69.3	0	2	90	0.00	29.996 
15:20	83.2	83.2	86.7	62	68.8	1	3	158	0.00	29.996 
15:25	83.0	83.0	86.4	62	68.6	1	3	135	0.00	29.996 
15:30	83.2	83.2	86.5	61	68.3	0	2	90	0.00	29.996 
15:35	83.4	83.4	87.0	62	69.0	1	2	90	0.00	29.996 
15:40	83.2	83.2	86.5	61	68.3	1	3	90	0.00	29.996 
15:45	83.0	83.0	86.6	63	69.1	0	2	90	0.00	29.990 
15:50	82.8	82.8	86.1	62	68.4	1	3	90	0.00	29.990 
15:55	82.4	82.4	86.1	65	69.4	0	2	90	0.00	29.990 
16:00	82.6	82.6	86.2	64	69.2	0	3	90	0.00	29.984 
16:05	82.8	82.8	86.1	62	68.4	0	3	90	0.00	29.984 
16:10	83.0	83.0	86.4	62	68.6	1	3	90	0.00	29.984 
16:15	82.8	82.8	86.3	63	68.9	1	4	90	0.00	29.981 
16:20	82.4	82.4	85.8	64	69.0	1	3	90	0.00	29.981 
16:25	82.4	82.4	85.8	64	69.0	0	2	90	0.00	29.981 
16:30	82.4	82.4	85.6	63	68.5	1	3	90	0.00	29.980 
16:35	82.2	82.2	85.5	64	68.8	0	2	90	0.00	29.980 
16:40	82.2	82.2	85.3	63	68.3	0	1	90	0.00	29.980 
16:45	82.4	82.4	85.8	64	69.0	0	2	90	0.00	29.975 
16:50	82.4	82.4	85.6	63	68.5	0	1	90	0.00	29.975 
16:55	82.6	82.6	86.2	64	69.2	0	2	90	0.00	29.975 
17:00	82.8	82.8	86.1	62	68.4	1	3	90	0.00	29.978 
17:05	83.0	83.0	86.4	62	68.6	1	2	248	0.00	29.978 
17:10	83.2	83.2	86.0	59	67.4	1	2	248	0.00	29.978 
17:15	83.8	83.8	86.7	58	67.4	1	3	248	0.00	29.977 
17:20	84.0	84.0	87.0	58	67.6	2	3	248	0.00	29.977 
17:25	84.0	84.0	86.7	57	67.1	1	4	248	0.00	29.977 
17:30	83.8	83.8	86.7	58	67.4	0	1	270	0.00	29.977 
17:35	83.6	83.6	86.6	59	67.7	1	3	270	0.00	29.977 
17:40	83.4	83.4	86.1	58	67.0	1	2	270	0.00	29.977 
17:45	83.4	83.4	86.3	59	67.5	0	2	270	0.00	29.971 
17:50	83.4	83.4	86.5	60	68.0	1	3	270	0.00	29.971 
17:55	83.8	83.8	86.9	59	67.9	1	3	270	0.00	29.971 
18:00	84.0	84.0	87.3	59	68.1	1	3	270	0.00	29.968 
18:05	84.0	84.0	87.0	58	67.6	1	3	270	0.00	29.968 
18:10	83.6	83.6	86.4	58	67.2	0	2	248	0.00	29.968 
18:15	83.4	83.4	86.3	59	67.5	1	2	248	0.00	29.968 
18:20	83.4	83.4	86.1	58	67.0	0	1	248	0.00	29.968 
18:25	83.4	83.4	85.6	56	66.0	1	3	248	0.00	29.968 
18:30	83.2	83.2	85.3	56	65.8	0	1	248	0.00	29.967 
18:35	83.4	83.4	85.2	54	65.0	0	2	292	0.00	29.967 
18:40	83.4	83.4	85.4	55	65.5	1	2	292	0.00	29.967 
18:45	83.4	83.4	85.4	55	65.5	1	2	292	0.00	29.966 
18:50	83.4	83.4	85.2	54	65.0	0	1	270	0.00	29.966 
18:55	83.2	83.2	84.7	53	64.3	1	2	270	0.00	29.966 
19:00	83.0	83.0	84.5	53	64.1	0	1	270	0.00	29.967 
19:05	83.0	83.0	84.5	53	64.1	1	2	270	0.00	29.967 
19:10	82.8	82.8	84.4	54	64.4	0	1	270	0.00	29.967 
19:15	82.4	82.4	84.1	55	64.6	0	2	270	0.00	29.964 
19:20	82.0	82.0	83.6	55	64.2	0	1	270	0.00	29.964 
19:25	81.8	81.8	83.3	55	64.0	0	1	270	0.00	29.964 
19:30	81.6	81.6	83.2	56	64.4	0	1	270	0.00	29.965 
19:35	81.6	81.6	83.4	57	64.9	0	1	270	0.00	29.965 
19:40	81.6	81.6	83.4	57	64.9	0	0	---	0.00	29.965 
19:45	81.4	81.4	83.3	58	65.2	0	1	270	0.00	29.965 
19:50	81.2	81.2	83.0	58	65.0	0	1	270	0.00	29.965 
19:55	81.2	81.2	83.0	58	65.0	0	1	270	0.00	29.965 
20:00	81.1	81.1	82.9	58	64.9	0	0	---	0.00	29.965 
20:05	80.9	80.9	82.8	59	65.2	0	0	---	0.00	29.965 
20:10	80.9	80.9	82.9	60	65.7	0	0	---	0.00	29.965 
20:15	80.7	80.7	82.7	60	65.5	0	1	270	0.00	29.965 
20:20	80.5	80.5	82.5	61	65.8	0	0	---	0.00	29.965 
20:25	80.5	80.5	82.5	61	65.8	0	0	---	0.00	29.965 
20:30	80.3	80.3	82.3	61	65.6	0	0	---	0.00	29.963 
20:35	80.1	80.1	82.2	62	65.9	0	0	---	0.00	29.963 
20:40	79.9	79.9	81.9	62	65.7	0	0	---	0.00	29.963 
20:45	79.8	79.8	81.9	63	66.1	0	0	---	0.00	29.965 
20:50	79.4	79.4	81.5	64	66.1	0	0	---	0.00	29.965 
20:55	79.0	79.0	81.0	65	66.2	0	0	---	0.00	29.965 
21:00	78.8	78.8	80.9	66	66.5	0	0	---	0.00	29.960 
21:05	78.5	78.5	80.5	67	66.6	0	1	270	0.00	29.960 
21:10	78.3	78.3	80.3	67	66.4	0	1	270	0.00	29.960 
21:15	78.1	78.1	80.0	67	66.2	0	1	270	0.00	29.956 
21:20	78.1	78.1	80.0	67	66.2	0	1	270	0.00	29.956 
21:25	77.9	77.9	79.8	68	66.5	0	0	---	0.00	29.956 
21:30	77.7	77.7	79.6	67	65.8	0	1	270	0.00	29.955 
21:35	77.7	77.7	79.6	68	66.3	0	1	270	0.00	29.955 
21:40	77.6	77.6	79.5	68	66.2	0	1	270	0.00	29.955 
21:45	77.6	77.6	79.5	68	66.2	0	1	270	0.00	29.958 
21:50	77.4	77.4	79.2	69	66.4	0	0	---	0.00	29.958 
21:55	77.4	77.4	79.3	71	67.2	0	1	270	0.00	29.958 
22:00	77.2	77.2	79.0	73	67.9	0	0	---	0.00	29.963 
22:05	77.0	77.0	78.7	74	68.1	0	0	---	0.00	29.963 
22:10	76.7	76.7	78.2	76	68.5	0	0	---	0.00	29.963 
22:15	76.1	76.1	77.4	77	68.3	0	0	---	0.00	29.957 
22:20	75.8	75.8	76.8	79	68.8	0	0	---	0.00	29.957 
22:25	75.6	75.6	76.4	80	69.0	0	0	---	0.00	29.957 
22:30	75.3	75.3	75.9	81	69.1	0	0	---	0.00	29.950 
22:35	75.1	75.1	75.5	82	69.2	0	0	---	0.00	29.950 
22:40	74.9	74.9	74.9	83	69.4	0	0	---	0.00	29.950 
22:45	74.9	74.9	74.9	84	69.7	0	0	---	0.00	29.946 
22:50	74.7	74.7	74.7	85	69.9	0	0	---	0.00	29.946 
22:55	74.7	74.7	74.7	86	70.2	0	0	---	0.00	29.946 
23:00	74.7	74.7	74.7	87	70.6	0	0	---	0.00	29.935 
23:05	74.7	74.7	74.7	87	70.6	0	1	270	0.00	29.935 
23:10	74.7	74.7	74.7	87	70.6	0	0	---	0.00	29.935 
23:15	74.7	74.7	74.7	88	70.9	0	0	---	0.00	29.933 
23:20	74.6	74.6	74.6	88	70.8	0	0	---	0.00	29.933 
23:25	74.6	74.6	74.6	88	70.8	0	0	---	0.00	29.933 
23:30	74.6	74.6	74.6	88	70.8	0	0	---	0.00	29.931 
23:35	74.6	74.6	74.6	88	70.8	0	0	---	0.00	29.931 
23:40	74.6	74.6	74.6	89	71.1	0	1	270	0.00	29.931 
23:45	74.6	74.6	74.6	89	71.1	0	0	---	0.00	29.929 
23:50	74.4	74.4	74.4	89	70.9	0	0	---	0.00	29.929 
23:55	74.4	74.4	74.4	89	70.9	0	0	---	0.00	29.929 

CoCoRaHS
IN-AL-39
A2 Web Hosting
Creative Commons License
GoDaddy
Look for:

loaded 2017-10-19 20:21:02 • last modified 2010-11-18 10:43:29
Privacy PolicyDisclaimer
• wx.awcolley.com is powered by PmWiki v.2002016 •
• all content (unless otherwise noted) © 2017 A W Colley